Time;durP1;ratioP1;P1;durP2;ratioP2;P2;SDS_P1;SDS_P2;PMS_P1;PMS_P2;Temp;Humidity;BMP_temperature;BMP_pressure;BME280_temperature;BME280_humidity;BME280_pressure;Samples;Min_cycle;Max_cycle;Signal;HPM_P1;HPM_P2
2021/12/11 00:01:37;;;;;;;5.35;1.00;;;;;;;7.32;100.00;101391.72;5050138;28;20132;-71
2021/12/11 00:04:08;;;;;;;2.08;1.00;;;;;;;7.28;100.00;101407.78;5049555;28;20044;-75
2021/12/11 00:06:41;;;;;;;2.95;1.52;;;;;;;7.32;100.00;101408.03;5050030;28;20403;-72
2021/12/11 00:09:15;;;;;;;1.45;0.60;;;;;;;7.38;100.00;101407.50;5050251;28;20057;-73
2021/12/11 00:11:48;;;;;;;6.22;1.40;;;;;;;7.38;100.00;101406.63;5043552;28;20049;-72
2021/12/11 00:14:17;;;;;;;0.93;0.60;;;;;;;7.41;100.00;101412.78;5049990;28;20064;-73
2021/12/11 00:16:46;;;;;;;1.95;0.80;;;;;;;7.38;100.00;101406.63;5050253;28;20049;-71
2021/12/11 00:19:18;;;;;;;1.70;0.60;;;;;;;7.41;100.00;101404.19;5053486;28;20061;-72
2021/12/11 00:21:48;;;;;;;1.85;0.80;;;;;;;7.41;100.00;101383.59;5049729;28;20549;-72
2021/12/11 00:24:20;;;;;;;0.98;0.70;;;;;;;7.39;100.00;101398.94;5050103;28;20470;-71
2021/12/11 00:26:55;;;;;;;1.50;0.90;;;;;;;7.38;100.00;101381.75;5048100;28;20414;-71
2021/12/11 00:29:26;;;;;;;1.40;0.50;;;;;;;7.34;100.00;101379.81;5035611;28;20142;-72
2021/12/11 00:32:01;;;;;;;2.38;0.80;;;;;;;7.34;100.00;101364.38;5049426;28;20115;-70
2021/12/11 00:34:30;;;;;;;1.90;0.82;;;;;;;7.37;100.00;101355.91;5049620;28;20510;-72
2021/12/11 00:37:01;;;;;;;0.60;0.50;;;;;;;7.37;100.00;101358.47;5052019;28;20103;-70
2021/12/11 00:39:31;;;;;;;1.05;0.65;;;;;;;7.42;100.00;101346.72;5050288;28;20096;-71
2021/12/11 00:42:09;;;;;;;3.13;0.93;;;;;;;7.41;100.00;101350.13;5045826;28;20052;-72
2021/12/11 00:44:39;;;;;;;6.72;1.58;;;;;;;7.39;100.00;101341.44;5054146;28;20203;-72
2021/12/11 00:47:11;;;;;;;1.92;1.02;;;;;;;7.38;100.00;101337.09;5053890;28;20041;-72
2021/12/11 00:49:49;;;;;;;2.95;0.82;;;;;;;7.37;100.00;101354.22;5039634;28;20577;-71
2021/12/11 00:52:17;;;;;;;2.70;0.82;;;;;;;7.32;100.00;101348.81;5054412;28;20111;-71
2021/12/11 00:54:47;;;;;;;2.22;0.63;;;;;;;7.34;100.00;101349.78;5053460;28;20045;-77
2021/12/11 00:57:22;;;;;;;2.08;1.10;;;;;;;7.37;100.00;101337.88;5048027;28;20109;-68
2021/12/11 01:00:01;;;;;;;1.95;0.65;;;;;;;7.34;100.00;101336.94;5046510;28;20099;-70
2021/12/11 01:02:30;;;;;;;2.33;0.88;;;;;;;7.32;100.00;101333.38;5034169;28;20132;-70
2021/12/11 01:04:59;;;;;;;4.22;1.10;;;;;;;7.29;100.00;101342.66;5033359;28;20133;-72
2021/12/11 01:07:31;;;;;;;5.80;1.30;;;;;;;7.31;100.00;101336.78;5037485;28;20107;-71
2021/12/11 01:10:02;;;;;;;3.80;1.30;;;;;;;7.31;100.00;101329.06;5042394;28;20080;-71
2021/12/11 01:12:41;;;;;;;3.35;1.10;;;;;;;7.35;100.00;101314.63;5044646;28;20045;-70
2021/12/11 01:15:17;;;;;;;7.03;1.70;;;;;;;7.30;100.00;101304.09;5051322;28;20049;-71
2021/12/11 01:18:00;;;;;;;3.13;1.00;;;;;;;7.31;100.00;101292.13;5045928;28;20040;-72
2021/12/11 01:20:36;;;;;;;2.78;1.50;;;;;;;7.28;100.00;101272.28;5039156;28;20419;-72
2021/12/11 01:23:16;;;;;;;1.55;0.80;;;;;;;7.26;100.00;101279.03;5053185;28;20068;-71
2021/12/11 01:25:45;;;;;;;8.00;0.95;;;;;;;7.32;100.00;101279.31;5049117;28;20071;-71
2021/12/11 01:28:15;;;;;;;2.83;0.88;;;;;;;7.26;100.00;101281.59;5034032;28;20061;-74
2021/12/11 01:30:45;;;;;;;2.65;0.95;;;;;;;7.21;100.00;101271.88;5049472;28;20045;-71
2021/12/11 01:33:14;;;;;;;2.17;0.85;;;;;;;7.14;100.00;101262.94;5052522;28;20049;-73
2021/12/11 01:35:43;;;;;;;4.60;1.15;;;;;;;7.28;100.00;101280.00;5052901;28;20061;-72
2021/12/11 01:38:14;;;;;;;0.82;0.50;;;;;;;7.31;100.00;101282.72;5039053;28;20103;-71
2021/12/11 01:40:44;;;;;;;3.70;0.70;;;;;;;7.32;100.00;101274.16;5052946;28;20087;-71
2021/12/11 01:43:14;;;;;;;0.80;0.60;;;;;;;7.34;100.00;101282.88;5052587;28;20073;-72
2021/12/11 01:45:52;;;;;;;1.27;1.00;;;;;;;7.38;100.00;101283.91;5052691;28;20075;-71
2021/12/11 01:48:23;;;;;;;1.95;0.85;;;;;;;7.39;100.00;101284.78;5052108;28;20049;-73
2021/12/11 01:50:57;;;;;;;4.45;0.73;;;;;;;7.40;100.00;101278.81;5052912;28;20057;-71
2021/12/11 01:53:28;;;;;;;3.15;0.93;;;;;;;7.44;100.00;101289.34;5051863;28;20091;-72
2021/12/11 01:55:59;;;;;;;2.10;0.70;;;;;;;7.46;100.00;101280.03;5052866;28;20518;-71
2021/12/11 01:58:37;;;;;;;1.33;0.82;;;;;;;7.46;100.00;101276.56;5052815;28;20053;-71
2021/12/11 02:01:10;;;;;;;1.27;0.98;;;;;;;7.46;100.00;101276.56;5042397;28;20122;-71
2021/12/11 02:03:39;;;;;;;0.73;0.40;;;;;;;7.48;100.00;101287.84;5052127;28;20041;-68
2021/12/11 02:06:08;;;;;;;1.90;0.75;;;;;;;7.46;100.00;101287.75;5052338;28;20483;-69
2021/12/11 02:08:40;;;;;;;1.38;0.70;;;;;;;7.46;100.00;101279.16;5050465;28;20052;-68
2021/12/11 02:11:13;;;;;;;3.95;0.70;;;;;;;7.41;100.00;101273.75;5050582;28;20876;-69
2021/12/11 02:13:47;;;;;;;;;;;;;;;7.45;100.00;101270.53;5051942;28;20079;-68
2021/12/11 02:16:22;;;;;;;4.88;0.93;;;;;;;7.43;100.00;101267.00;5055610;28;19925;-68
2021/12/11 02:18:54;;;;;;;1.85;0.68;;;;;;;7.45;100.00;101252.53;5052116;28;20041;-68
2021/12/11 02:21:27;;;;;;;0.47;0.47;;;;;;;7.41;100.00;101236.84;5052025;28;20048;-67
2021/12/11 02:24:03;;;;;;;2.30;0.60;;;;;;;7.49;100.00;101240.66;5053127;28;20057;-68
2021/12/11 02:26:34;;;;;;;1.15;0.50;;;;;;;7.44;100.00;101232.72;5053208;28;20057;-68
2021/12/11 02:29:09;;;;;;;1.38;0.70;;;;;;;7.39;100.00;101228.16;5052368;28;20061;-68
2021/12/11 02:31:43;;;;;;;1.63;0.60;;;;;;;7.42;100.00;101238.59;5052062;28;20514;-68
2021/12/11 02:34:15;;;;;;;2.70;1.15;;;;;;;7.44;100.00;101232.72;5052670;28;20040;-68
2021/12/11 02:36:51;;;;;;;0.70;0.55;;;;;;;7.47;100.00;101226.84;5053323;28;20049;-68
2021/12/11 02:39:27;;;;;;;0.52;0.50;;;;;;;7.45;100.00;101220.75;5053481;28;20060;-69
2021/12/11 02:42:06;;;;;;;1.45;0.73;;;;;;;7.47;100.00;101211.41;5052914;28;20080;-68
2021/12/11 02:44:39;;;;;;;1.30;0.45;;;;;;;7.50;100.00;101208.97;5051999;28;20588;-68
2021/12/11 02:47:14;;;;;;;2.03;1.08;;;;;;;7.48;100.00;101218.31;5040359;28;20057;-68
2021/12/11 02:49:47;;;;;;;1.75;0.70;;;;;;;7.51;100.00;101213.31;5050193;28;20468;-71
2021/12/11 02:52:19;;;;;;;3.47;1.10;;;;;;;7.53;100.00;101219.41;5051058;28;20114;-68
2021/12/11 02:54:54;;;;;;;;;;;;;;;7.53;100.00;101222.88;5051691;28;20049;-68
2021/12/11 02:57:26;;;;;;;5.07;1.05;;;;;;;7.54;100.00;101208.31;5051529;28;20321;-68
2021/12/11 02:59:55;;;;;;;1.63;1.25;;;;;;;7.53;100.00;101203.97;5039502;28;20318;-68
2021/12/11 03:02:29;;;;;;;2.47;0.80;;;;;;;7.54;100.00;101192.88;5050525;28;20055;-68
2021/12/11 03:05:08;;;;;;;0.73;0.50;;;;;;;7.54;100.00;101187.72;5049702;28;20041;-68
2021/12/11 03:07:38;;;;;;;1.67;0.70;;;;;;;7.52;100.00;101176.47;5051399;28;20483;-69
2021/12/11 03:10:12;;;;;;;1.17;0.80;;;;;;;7.50;100.00;101176.38;5049980;28;20110;-68
2021/12/11 03:12:43;;;;;;;0.40;0.22;;;;;;;7.49;100.00;101168.56;5046510;28;20048;-69
2021/12/11 03:15:13;;;;;;;2.45;0.40;;;;;;;7.50;100.00;101166.06;5053848;28;20045;-70
2021/12/11 03:17:42;;;;;;;0.80;0.30;;;;;;;7.44;100.00;101152.03;5049337;28;20085;-69
2021/12/11 03:20:13;;;;;;;2.60;0.60;;;;;;;7.45;100.00;101146.09;5038541;28;20149;-70
2021/12/11 03:22:43;;;;;;;5.90;2.13;;;;;;;7.45;100.00;101126.34;5035751;28;20055;-69
2021/12/11 03:25:17;;;;;;;1.23;0.40;;;;;;;7.46;100.00;101119.50;5039500;28;20521;-68
2021/12/11 03:27:47;;;;;;;2.05;0.90;;;;;;;7.51;100.00;101112.88;5050102;28;20044;-69
2021/12/11 03:30:23;;;;;;;4.50;0.60;;;;;;;7.53;100.00;101104.41;5051159;28;20076;-69
2021/12/11 03:32:53;;;;;;;1.48;0.63;;;;;;;7.54;100.00;101095.03;5050394;28;20103;-70
2021/12/11 03:35:23;;;;;;;0.70;0.40;;;;;;;7.55;100.00;101091.63;5050673;28;20080;-69
2021/12/11 03:37:51;;;;;;;2.22;0.50;;;;;;;7.57;100.00;101089.13;5050046;28;20044;-68
2021/12/11 03:40:22;;;;;;;1.05;0.57;;;;;;;7.55;100.00;101096.78;5050748;28;20451;-71
2021/12/11 03:42:53;;;;;;;1.25;0.60;;;;;;;7.54;100.00;101088.16;5049894;28;20053;-70
2021/12/11 03:45:27;;;;;;;2.20;0.47;;;;;;;7.55;100.00;101081.31;5037022;28;20402;-71
2021/12/11 03:47:59;;;;;;;1.35;0.65;;;;;;;7.53;100.00;101082.94;5050647;28;20053;-71
2021/12/11 03:50:29;;;;;;;2.15;0.60;;;;;;;7.54;100.00;101074.41;5036843;28;20052;-74
2021/12/11 03:52:59;;;;;;;1.95;0.80;;;;;;;7.57;100.00;101061.69;5050031;28;20098;-71
2021/12/11 03:55:34;;;;;;;4.50;0.80;;;;;;;7.58;100.00;101044.53;5039954;28;20099;-72
2021/12/11 03:58:04;;;;;;;1.63;0.60;;;;;;;7.54;100.00;101053.81;5050445;28;20080;-70
2021/12/11 04:00:37;;;;;;;2.13;0.63;;;;;;;7.56;100.00;101044.47;5049960;28;20052;-71
2021/12/11 04:03:07;;;;;;;1.02;0.40;;;;;;;7.57;100.00;101065.94;5049931;28;20549;-72
2021/12/11 04:05:37;;;;;;;1.27;0.90;;;;;;;7.56;100.00;101062.50;5051492;28;20135;-70
2021/12/11 04:08:08;;;;;;;3.17;0.98;;;;;;;7.58;100.00;101052.25;5052963;28;20090;-70
2021/12/11 04:10:39;;;;;;;1.15;0.77;;;;;;;7.60;100.00;101053.22;5051137;28;20521;-70
2021/12/11 04:13:09;;;;;;;2.97;0.68;;;;;;;7.58;100.00;101059.97;5045264;28;20048;-70
2021/12/11 04:15:40;;;;;;;3.28;0.80;;;;;;;7.60;100.00;101058.34;5053305;28;20060;-70
2021/12/11 04:18:10;;;;;;;1.55;0.80;;;;;;;7.59;100.00;101049.75;5051305;28;20283;-72
2021/12/11 04:20:41;;;;;;;1.88;0.88;;;;;;;7.59;100.00;101044.59;5050991;28;20102;-70
2021/12/11 04:23:12;;;;;;;3.92;1.10;;;;;;;7.60;100.00;101063.50;5050202;28;20510;-71
2021/12/11 04:25:44;;;;;;;1.30;0.75;;;;;;;7.59;100.00;101042.03;5050845;28;20472;-72
2021/12/11 04:28:16;;;;;;;0.82;0.60;;;;;;;7.62;100.00;101044.72;5052008;28;20479;-72
2021/12/11 04:30:45;;;;;;;1.38;0.65;;;;;;;7.63;100.00;101032.72;5050760;28;20132;-72
2021/12/11 04:33:14;;;;;;;2.45;0.70;;;;;;;7.60;100.00;101040.31;5050426;28;20049;-71
2021/12/11 04:35:43;;;;;;;0.98;0.60;;;;;;;7.61;100.00;101031.81;5049664;28;20081;-73
2021/12/11 04:38:13;;;;;;;2.17;0.93;;;;;;;7.59;100.00;101028.28;5031031;28;20050;-72
2021/12/11 04:40:48;;;;;;;1.00;0.60;;;;;;;7.61;100.00;101039.53;5031091;28;20053;-70
2021/12/11 04:43:20;;;;;;;1.52;0.80;;;;;;;7.60;100.00;101046.34;5036831;28;20068;-70
2021/12/11 04:45:53;;;;;;;1.00;0.43;;;;;;;7.61;100.00;101035.25;5050707;28;20430;-70
2021/12/11 04:48:32;;;;;;;1.35;0.50;;;;;;;7.61;100.00;101027.53;5050714;28;20049;-69
2021/12/11 04:51:08;;;;;;;2.55;1.23;;;;;;;7.64;100.00;101032.81;5050366;28;20049;-70
2021/12/11 04:53:52;;;;;;;1.85;0.77;;;;;;;7.61;100.00;101030.09;5030527;28;20053;-71
2021/12/11 04:57:00;;;;;;;1.02;0.52;;;;;;;7.64;100.00;101035.38;5031128;28;20054;-71
2021/12/11 04:59:52;;;;;;;2.65;0.70;;;;;;;7.68;100.00;101034.72;5050784;28;20063;-71
2021/12/11 05:02:53;;;;;;;2.10;0.70;;;;;;;7.64;100.00;101025.09;5050134;28;20142;-70
2021/12/11 05:05:31;;;;;;;2.08;0.50;;;;;;;7.62;100.00;101016.41;5050608;28;20041;-73
2021/12/11 05:08:15;;;;;;;0.82;0.60;;;;;;;7.61;100.00;101001.78;5049773;28;20059;-71
2021/12/11 05:10:53;;;;;;;1.95;0.50;;;;;;;7.56;100.00;100990.41;5036926;28;20052;-73
2021/12/11 05:13:25;;;;;;;2.80;0.70;;;;;;;7.58;100.00;101001.63;5046893;28;20053;-74
2021/12/11 05:15:56;;;;;;;4.70;1.02;;;;;;;7.58;100.00;100990.44;5051321;28;20114;-72
2021/12/11 05:18:28;;;;;;;1.55;0.60;;;;;;;7.58;100.00;100986.16;5036696;28;20046;-72
2021/12/11 05:21:01;;;;;;;4.18;1.00;;;;;;;7.58;100.00;100978.44;5030823;28;20042;-73
2021/12/11 05:23:30;;;;;;;2.75;0.80;;;;;;;7.60;100.00;100969.09;5044752;28;20051;-72
2021/12/11 05:25:59;;;;;;;3.10;0.50;;;;;;;7.60;100.00;100966.53;5039772;28;20177;-72
2021/12/11 05:28:30;;;;;;;2.75;0.60;;;;;;;7.60;100.00;100968.22;5055328;27;20080;-72
2021/12/11 05:31:00;;;;;;;1.00;0.85;;;;;;;7.58;100.00;100952.69;5053821;28;20045;-72
2021/12/11 05:33:44;;;;;;;0.60;0.50;;;;;;;7.53;100.00;100952.50;5053375;28;20060;-73
2021/12/11 05:36:15;;;;;;;1.45;0.50;;;;;;;7.54;100.00;100940.53;5039405;28;20049;-72
2021/12/11 05:38:47;;;;;;;0.82;0.60;;;;;;;7.54;100.00;100930.22;5053506;28;20051;-71
2021/12/11 05:41:19;;;;;;;0.93;0.57;;;;;;;7.53;100.00;100918.13;5053762;28;20045;-74
2021/12/11 05:43:50;;;;;;;1.98;0.70;;;;;;;7.53;100.00;100913.88;5053563;28;20060;-72
2021/12/11 05:46:19;;;;;;;1.83;0.57;;;;;;;7.53;100.00;100915.56;5053892;28;20057;-71
2021/12/11 05:48:51;;;;;;;1.02;0.63;;;;;;;7.57;100.00;100894.28;5045589;28;20125;-72
2021/12/11 05:51:22;;;;;;;1.45;0.57;;;;;;;7.60;100.00;100883.25;5049671;28;20049;-75
2021/12/11 05:53:55;;;;;;;1.42;0.70;;;;;;;7.58;100.00;100890.91;5053629;28;20572;-73
2021/12/11 05:56:24;;;;;;;1.40;0.88;;;;;;;7.61;100.00;100895.31;5041052;28;20162;-74
2021/12/11 05:59:00;;;;;;;1.10;0.65;;;;;;;7.61;100.00;100905.63;5050646;28;20073;-73
2021/12/11 06:01:33;;;;;;;1.17;0.80;;;;;;;7.62;100.00;100892.78;5042951;28;20053;-74
2021/12/11 06:04:06;;;;;;;1.98;0.70;;;;;;;7.62;100.00;100885.06;5050116;28;20498;-73
2021/12/11 06:06:35;;;;;;;2.95;1.15;;;;;;;7.58;100.00;100882.28;5053732;28;20045;-73
2021/12/11 06:09:06;;;;;;;1.90;0.60;;;;;;;7.60;100.00;100894.41;5051319;28;20079;-73
2021/12/11 06:11:35;;;;;;;2.15;0.60;;;;;;;7.59;100.00;100900.41;5047931;28;20072;-72
2021/12/11 06:14:06;;;;;;;2.90;0.75;;;;;;;7.62;100.00;100903.09;5053671;28;20049;-71
2021/12/11 06:16:35;;;;;;;1.50;0.60;;;;;;;7.62;98.63;100892.78;5052701;28;20499;-72
2021/12/11 06:19:06;;;;;;;2.78;0.52;;;;;;;7.59;98.76;100890.09;5053208;28;20146;-73
2021/12/11 06:21:36;;;;;;;1.45;0.68;;;;;;;7.65;100.00;100884.31;5053078;28;20103;-72
2021/12/11 06:24:06;;;;;;;1.83;0.80;;;;;;;7.68;100.00;100872.47;5052465;28;20498;-71
2021/12/11 06:26:35;;;;;;;2.28;0.52;;;;;;;7.67;100.00;100874.97;5050349;28;20053;-73
2021/12/11 06:29:06;;;;;;;0.65;0.60;;;;;;;7.64;100.00;100860.25;5044930;28;20114;-72
2021/12/11 06:31:35;;;;;;;0.95;0.50;;;;;;;7.61;100.00;100855.00;5072523;28;20049;-72
2021/12/11 06:34:04;;;;;;;1.27;0.68;;;;;;;7.62;100.00;100858.44;5057974;28;20577;-75
2021/12/11 06:36:33;;;;;;;2.50;0.70;;;;;;;7.59;100.00;100848.91;5072501;28;20055;-73
2021/12/11 06:39:06;;;;;;;1.23;0.45;;;;;;;7.60;100.00;100848.06;5072082;28;20045;-72
2021/12/11 06:41:38;;;;;;;1.10;0.70;;;;;;;7.60;100.00;100835.19;5072463;28;20118;-73
2021/12/11 06:44:09;;;;;;;2.23;0.93;;;;;;;7.60;100.00;100837.75;5071939;28;20515;-71
2021/12/11 06:46:39;;;;;;;3.85;0.60;;;;;;;7.62;100.00;100825.84;5072957;28;20076;-70
2021/12/11 06:49:08;;;;;;;1.38;0.77;;;;;;;7.64;100.00;100833.63;5072383;28;20118;-71
2021/12/11 06:51:37;;;;;;;2.30;1.10;;;;;;;7.60;100.00;100827.47;5072374;28;20487;-73
2021/12/11 06:54:08;;;;;;;1.00;0.70;;;;;;;7.64;100.00;100813.91;5071469;28;20040;-69
2021/12/11 06:56:39;;;;;;;1.30;0.40;;;;;;;7.69;100.00;100806.38;5072127;28;20494;-71
2021/12/11 06:59:11;;;;;;;1.55;0.70;;;;;;;7.68;100.00;100800.34;5066392;28;20482;-73
2021/12/11 07:01:41;;;;;;;4.25;1.02;;;;;;;7.69;100.00;100803.81;5072199;28;20059;-71
2021/12/11 07:04:11;;;;;;;1.25;1.05;;;;;;;7.67;100.00;100798.63;5072226;28;20495;-72
2021/12/11 07:06:42;;;;;;;1.95;0.90;;;;;;;7.67;100.00;100793.47;5072038;28;20080;-73
2021/12/11 07:09:12;;;;;;;0.95;0.52;;;;;;;7.69;100.00;100788.34;5073808;28;20049;-71
2021/12/11 07:11:43;;;;;;;1.52;0.82;;;;;;;7.67;100.00;100779.69;5071313;28;20518;-71
2021/12/11 07:14:14;;;;;;;1.85;0.90;;;;;;;7.68;99.71;100774.59;5059935;28;20098;-72
2021/12/11 07:16:43;;;;;;;0.93;0.68;;;;;;;7.69;99.82;100776.34;5071686;28;20106;-74
2021/12/11 07:19:13;;;;;;;0.98;0.68;;;;;;;7.64;98.60;100762.41;5071526;28;20474;-72
2021/12/11 07:21:42;;;;;;;0.95;0.75;;;;;;;7.67;97.48;100765.13;5071546;28;20490;-71
2021/12/11 07:24:14;;;;;;;1.38;0.82;;;;;;;7.71;98.03;100751.53;5071136;28;20510;-71
2021/12/11 07:26:43;;;;;;;1.90;0.85;;;;;;;7.74;98.03;100737.91;5071432;28;20098;-71
2021/12/11 07:29:15;;;;;;;1.27;0.50;;;;;;;7.73;98.53;100731.88;5070488;28;20438;-72
2021/12/11 07:31:46;;;;;;;1.25;0.55;;;;;;;7.73;98.23;100726.72;5070963;28;20048;-73
2021/12/11 07:34:16;;;;;;;1.75;0.70;;;;;;;7.75;95.46;100730.25;5070922;28;20063;-71
2021/12/11 07:36:46;;;;;;;2.80;0.70;;;;;;;7.78;94.36;100734.63;5057609;28;20048;-71
2021/12/11 07:39:18;;;;;;;4.43;0.85;;;;;;;7.84;94.85;100723.72;5071437;28;20044;-71
2021/12/11 07:41:48;;;;;;;0.85;0.50;;;;;;;7.84;92.41;100727.16;5071975;28;20143;-70
2021/12/11 07:44:18;;;;;;;1.50;0.55;;;;;;;7.86;93.23;100717.81;5070613;28;20052;-68
2021/12/11 07:46:48;;;;;;;1.15;0.65;;;;;;;7.83;93.71;100699.63;5069892;28;20098;-68
2021/12/11 07:49:17;;;;;;;0.38;0.30;;;;;;;7.88;91.64;100725.56;5070749;28;20505;-69
2021/12/11 07:51:45;;;;;;;0.85;0.60;;;;;;;7.92;92.66;100722.31;5070998;28;20099;-70
2021/12/11 07:54:14;;;;;;;1.20;0.60;;;;;;;7.95;91.35;100712.16;5071642;28;20132;-68
2021/12/11 07:56:42;;;;;;;1.45;0.75;;;;;;;7.94;92.23;100718.09;5071470;28;20087;-69
2021/12/11 07:59:12;;;;;;;0.75;0.50;;;;;;;7.97;92.02;100715.63;5058326;28;20056;-69
2021/12/11 08:01:44;;;;;;;5.63;0.85;;;;;;;8.02;93.64;100700.34;5071809;28;20084;-68
2021/12/11 08:04:14;;;;;;;1.17;0.50;;;;;;;8.01;92.15;100699.47;5070774;28;20045;-70
2021/12/11 08:06:43;;;;;;;1.30;0.55;;;;;;;7.99;91.24;100698.53;5071304;28;20048;-69
2021/12/11 08:09:19;;;;;;;1.27;0.77;;;;;;;8.02;95.81;100683.22;5073701;28;20498;-69
2021/12/11 08:11:49;;;;;;;1.17;0.63;;;;;;;8.02;94.47;100678.06;5064491;28;20036;-68
2021/12/11 08:14:19;;;;;;;1.77;0.88;;;;;;;8.04;96.21;100668.69;5070230;28;20075;-68
2021/12/11 08:16:53;;;;;;;1.75;0.85;;;;;;;8.00;93.95;100682.28;5069998;28;20122;-69
2021/12/11 08:19:23;;;;;;;3.90;1.00;;;;;;;7.99;93.24;100672.78;5070808;28;20131;-71
2021/12/11 08:21:55;;;;;;;1.80;0.70;;;;;;;7.98;94.90;100671.91;5069041;28;20040;-68
2021/12/11 08:24:26;;;;;;;1.75;0.50;;;;;;;7.97;97.88;100662.44;5070402;28;20095;-68
2021/12/11 08:26:58;;;;;;;1.00;0.60;;;;;;;8.00;98.71;100653.06;5069762;28;20652;-68
2021/12/11 08:29:28;;;;;;;0.65;0.40;;;;;;;7.99;99.37;100649.59;5070107;28;20118;-68
2021/12/11 08:31:59;;;;;;;5.05;0.70;;;;;;;7.97;98.50;100646.97;5070111;28;20048;-69
2021/12/11 08:34:28;;;;;;;0.93;0.43;;;;;;;7.96;97.87;100652.94;5069859;28;20091;-68
2021/12/11 08:36:59;;;;;;;1.35;0.80;;;;;;;7.94;96.40;100648.53;5070070;28;20117;-68
2021/12/11 08:39:29;;;;;;;0.75;0.55;;;;;;;8.00;98.72;100651.34;5069698;28;20109;-69
2021/12/11 08:42:00;;;;;;;0.85;0.57;;;;;;;8.00;100.00;100651.34;5069663;28;20506;-68
2021/12/11 08:44:34;;;;;;;1.10;0.30;;;;;;;7.96;100.00;100652.06;5070158;28;20617;-70
2021/12/11 08:47:07;;;;;;;1.35;0.55;;;;;;;7.95;100.00;100640.00;5057049;28;20055;-68
2021/12/11 08:49:37;;;;;;;2.08;0.80;;;;;;;7.91;100.00;100635.53;5068838;28;20132;-69
2021/12/11 08:52:12;;;;;;;0.57;0.30;;;;;;;7.83;100.00;100632.66;5055468;28;20041;-69
2021/12/11 08:54:41;;;;;;;1.70;0.60;;;;;;;7.79;100.00;100628.22;5069867;28;20134;-69
2021/12/11 08:57:11;;;;;;;0.95;0.50;;;;;;;7.74;100.00;100620.31;5069142;28;20084;-69
2021/12/11 08:59:45;;;;;;;0.85;0.55;;;;;;;7.73;100.00;100618.56;5063715;28;20052;-69
2021/12/11 09:02:19;;;;;;;0.43;0.40;;;;;;;7.76;100.00;100613.53;5072376;28;20567;-69
2021/12/11 09:04:55;;;;;;;1.27;0.60;;;;;;;7.75;100.00;100616.03;5074139;28;20398;-69
2021/12/11 09:07:27;;;;;;;2.15;0.60;;;;;;;7.72;100.00;100616.81;5073819;28;20051;-69
2021/12/11 09:09:57;;;;;;;;;;;;;;;7.66;100.00;100616.56;5064331;28;20109;-68
2021/12/11 09:12:29;;;;;;;1.00;0.52;;;;;;;7.66;100.00;100615.69;5066166;28;19946;-68
2021/12/11 09:15:02;;;;;;;1.33;0.40;;;;;;;7.66;100.00;100613.13;5067678;28;20098;-68
2021/12/11 09:17:36;;;;;;;2.40;0.55;;;;;;;7.62;100.00;100595.78;5060243;28;20494;-68
2021/12/11 09:20:13;;;;;;;1.02;0.40;;;;;;;7.59;100.00;100601.69;5073501;28;20052;-68
2021/12/11 09:22:47;;;;;;;1.00;0.88;;;;;;;7.51;100.00;100574.75;5073494;28;20045;-68
2021/12/11 09:25:23;;;;;;;1.20;0.75;;;;;;;7.47;100.00;100570.34;5073435;28;20048;-69
2021/12/11 09:27:54;;;;;;;0.75;0.38;;;;;;;7.43;100.00;100566.75;5060398;28;20391;-68
2021/12/11 09:30:30;;;;;;;0.40;0.40;;;;;;;7.34;100.00;100562.13;5071561;28;20409;-68
2021/12/11 09:33:03;;;;;;;1.13;0.65;;;;;;;7.30;100.00;100560.22;5059520;28;20048;-69
2021/12/11 09:35:36;;;;;;;2.13;0.52;;;;;;;7.28;100.00;100556.75;5074022;28;20048;-69
2021/12/11 09:38:06;;;;;;;;;;;;;;;7.22;100.00;100560.78;5059520;28;20549;-69
2021/12/11 09:40:56;;;;;;;1.67;0.47;;;;;;;7.18;100.00;100564.03;5073695;28;19998;-68
2021/12/11 09:43:33;;;;;;;1.50;0.63;;;;;;;7.16;100.00;100553.66;5061673;28;20056;-69
2021/12/11 09:46:02;;;;;;;1.90;0.77;;;;;;;7.12;100.00;100539.81;5073425;28;20076;-69
2021/12/11 09:48:31;;;;;;;1.38;0.30;;;;;;;7.11;100.00;100544.91;5072767;28;20260;-68
2021/12/11 09:51:03;;;;;;;0.90;0.43;;;;;;;7.09;100.00;100546.53;5073398;28;20052;-69
2021/12/11 09:53:37;;;;;;;3.63;0.80;;;;;;;7.06;100.00;100543.84;5073320;28;20056;-68
2021/12/11 09:56:07;;;;;;;0.75;0.57;;;;;;;7.07;100.00;100540.44;5074124;28;20060;-69
2021/12/11 09:58:41;;;;;;;0.60;0.43;;;;;;;7.03;100.00;100535.97;5073588;28;20057;-70
2021/12/11 10:01:13;;;;;;;0.63;0.60;;;;;;;7.03;100.00;100538.56;5074758;28;20109;-70
2021/12/11 10:03:48;;;;;;;2.17;0.30;;;;;;;7.01;100.00;100551.38;5064645;28;20095;-68
2021/12/11 10:06:38;;;;;;;1.33;0.60;;;;;;;6.93;100.00;100527.03;5072596;28;20052;-70
2021/12/11 10:09:18;;;;;;;1.10;0.70;;;;;;;6.91;100.00;100533.78;5063503;28;20410;-69
2021/12/11 10:11:57;;;;;;;2.13;0.70;;;;;;;6.92;100.00;100533.00;5070792;28;20049;-69
2021/12/11 10:14:31;;;;;;;2.38;0.90;;;;;;;6.86;100.00;100528.47;5062651;28;20044;-70
2021/12/11 10:17:03;;;;;;;6.05;1.17;;;;;;;6.85;100.00;100518.09;5069813;28;20048;-69
2021/12/11 10:19:32;;;;;;;4.20;1.13;;;;;;;6.81;100.00;100532.53;5062124;28;20044;-70
2021/12/11 10:22:05;;;;;;;1.52;0.93;;;;;;;6.79;100.00;100528.16;5072250;28;20047;-69
2021/12/11 10:24:37;;;;;;;1.02;0.63;;;;;;;6.78;100.00;100531.53;5072325;28;20044;-69
2021/12/11 10:27:09;;;;;;;1.35;0.70;;;;;;;6.74;100.00;100520.25;5072311;28;20080;-69
2021/12/11 10:29:41;;;;;;;1.40;0.60;;;;;;;6.70;100.00;100521.81;5071877;28;20064;-69
2021/12/11 10:32:13;;;;;;;1.50;0.93;;;;;;;6.74;100.00;100527.97;5072024;28;20453;-69
2021/12/11 10:34:44;;;;;;;1.90;0.98;;;;;;;6.70;100.00;100520.94;5071894;28;20461;-69
2021/12/11 10:37:16;;;;;;;1.10;0.63;;;;;;;6.64;100.00;100518.09;5062521;28;20060;-69
2021/12/11 10:39:48;;;;;;;3.37;0.90;;;;;;;6.63;100.00;100516.38;5068455;28;20545;-70
2021/12/11 10:42:16;;;;;;;;;;;;;;;6.61;100.00;100513.72;5072395;28;20044;-69
2021/12/11 10:44:51;;;;;;;1.10;0.40;;;;;;;6.62;100.00;100494.94;5071656;28;20402;-69
2021/12/11 10:47:21;;;;;;;4.55;1.42;;;;;;;6.64;100.00;100501.00;5071831;28;20094;-69
2021/12/11 10:49:52;;;;;;;1.67;0.77;;;;;;;6.61;100.00;100500.00;5071727;28;20095;-70
2021/12/11 10:52:25;;;;;;;5.07;0.82;;;;;;;6.56;100.00;100498.94;5071884;28;20045;-70
2021/12/11 10:54:55;;;;;;;0.77;0.50;;;;;;;6.55;100.00;100484.31;5071501;28;20056;-71
2021/12/11 10:57:25;;;;;;;0.93;0.77;;;;;;;6.58;100.00;100484.44;5071479;28;20080;-70
2021/12/11 10:59:58;;;;;;;5.13;0.90;;;;;;;6.55;100.00;100482.63;5070643;28;20080;-71
2021/12/11 11:02:29;;;;;;;1.83;0.98;;;;;;;6.60;100.00;100475.13;5071184;28;20045;-70
2021/12/11 11:05:00;;;;;;;1.48;0.77;;;;;;;6.54;100.00;100459.44;5071716;28;20044;-71
2021/12/11 11:07:29;;;;;;;3.85;0.82;;;;;;;6.58;100.00;100474.16;5073998;28;20125;-70
2021/12/11 11:10:01;;;;;;;2.83;1.20;;;;;;;6.55;100.00;100467.22;5071926;28;20425;-70
2021/12/11 11:12:31;;;;;;;1.70;0.73;;;;;;;6.53;100.00;100457.66;5059417;28;20041;-68
2021/12/11 11:15:01;;;;;;;1.73;1.02;;;;;;;6.51;100.00;100444.75;5071376;28;20080;-70
2021/12/11 11:17:33;;;;;;;0.80;0.50;;;;;;;6.48;100.00;100430.09;5071738;28;20101;-70
2021/12/11 11:20:15;;;;;;;2.05;1.05;;;;;;;6.43;100.00;100436.72;5070487;28;20056;-69
2021/12/11 11:22:46;;;;;;;1.20;0.52;;;;;;;6.43;100.00;100423.88;5070493;28;20044;-70
2021/12/11 11:25:18;;;;;;;1.15;0.70;;;;;;;6.40;100.00;100410.91;5070841;28;20121;-69
2021/12/11 11:27:50;;;;;;;3.10;1.05;;;;;;;6.41;100.00;100401.50;5058238;28;20047;-68
2021/12/11 11:30:32;;;;;;;2.17;0.98;;;;;;;6.41;100.00;100412.66;5070576;28;20144;-71
2021/12/11 11:33:02;;;;;;;3.38;0.77;;;;;;;6.38;100.00;100409.97;5057740;28;20051;-69
2021/12/11 11:35:34;;;;;;;1.25;0.60;;;;;;;6.40;100.00;100398.06;5071103;28;20127;-70
2021/12/11 11:38:04;;;;;;;0.95;0.75;;;;;;;6.39;100.00;100393.75;5071227;28;20508;-70
2021/12/11 11:40:36;;;;;;;3.17;0.80;;;;;;;6.37;100.00;100372.25;5071461;28;20357;-70
2021/12/11 11:43:07;;;;;;;1.17;0.68;;;;;;;6.33;100.00;100375.50;5071061;28;20460;-70
2021/12/11 11:45:39;;;;;;;1.17;0.60;;;;;;;6.29;100.00;100353.06;5071863;28;20098;-70
2021/12/11 11:48:09;;;;;;;1.83;0.95;;;;;;;6.24;100.00;100326.31;5070337;28;20053;-70
2021/12/11 11:50:42;;;;;;;2.05;0.93;;;;;;;6.18;100.00;100300.38;5071494;28;20082;-72